createdAt,value
2023-08-02T00:00:04.302Z,78.04
2023-08-02T00:02:05.880Z,77.51
2023-08-02T00:04:11.385Z,77.64
2023-08-02T00:06:13.226Z,77.41
2023-08-02T00:08:14.666Z,77.58
2023-08-02T00:10:16.080Z,77.13
2023-08-02T00:12:17.530Z,78.29
2023-08-02T00:14:19.074Z,78.89
2023-08-02T00:16:20.541Z,79.12
2023-08-02T00:18:21.995Z,79.32
2023-08-02T00:20:23.440Z,78.90
2023-08-02T00:22:24.869Z,79.37
2023-08-02T00:24:26.339Z,79.13
2023-08-02T00:26:28.738Z,78.69
2023-08-02T00:28:30.170Z,78.97
2023-08-02T00:30:32.179Z,79.28
2023-08-02T00:32:33.725Z,78.91
2023-08-02T00:34:35.207Z,79.25
2023-08-02T00:36:36.722Z,78.83
2023-08-02T00:38:38.202Z,79.32
2023-08-02T00:40:39.962Z,79.39
2023-08-02T00:42:41.582Z,80.83
2023-08-02T00:44:43.033Z,79.96
2023-08-02T00:46:44.829Z,80.12
2023-08-02T00:48:47.708Z,78.53
2023-08-02T00:50:49.244Z,79.59
2023-08-02T00:52:52.245Z,80.10
2023-08-02T00:54:54.403Z,78.77
2023-08-02T00:56:56.263Z,79.76
2023-08-02T00:58:57.800Z,80.05
2023-08-02T01:01:08.224Z,79.52
2023-08-02T01:03:09.851Z,80.62
2023-08-02T01:05:13.934Z,79.66
2023-08-02T01:07:41.461Z,80.02
2023-08-02T01:09:55.794Z,80.09
2023-08-02T01:12:08.339Z,80.49
2023-08-02T01:14:13.499Z,79.95
2023-08-02T01:16:16.763Z,80.01
2023-08-02T01:18:18.625Z,80.09
2023-08-02T01:20:20.054Z,80.20
2023-08-02T01:22:21.970Z,80.77
2023-08-02T01:24:30.815Z,80.53
2023-08-02T01:26:35.580Z,80.30
2023-08-02T01:28:43.937Z,81.39
2023-08-02T01:30:46.009Z,80.64
2023-08-02T01:32:47.859Z,80.87
2023-08-02T01:34:51.695Z,81.11
2023-08-02T01:36:53.468Z,81.03
2023-08-02T01:38:54.983Z,81.13
2023-08-02T01:40:56.544Z,81.28
2023-08-02T01:42:58.071Z,81.63
2023-08-02T01:44:59.534Z,81.00
2023-08-02T01:47:01.094Z,81.27
2023-08-02T01:49:02.533Z,80.83
2023-08-02T01:51:04.070Z,80.77
2023-08-02T01:53:05.481Z,80.83
2023-08-02T01:55:07.328Z,81.15
2023-08-02T01:57:08.799Z,82.58
2023-08-02T01:59:13.054Z,80.81
2023-08-02T02:01:14.600Z,80.92
2023-08-02T02:03:16.171Z,80.63
2023-08-02T02:05:17.649Z,81.64
2023-08-02T02:07:19.137Z,80.66
2023-08-02T02:09:20.606Z,82.03
2023-08-02T02:11:22.040Z,81.70
2023-08-02T02:13:25.371Z,82.15
2023-08-02T02:15:26.826Z,81.23
2023-08-02T02:17:28.288Z,81.29
2023-08-02T02:19:29.740Z,80.75
2023-08-02T02:21:31.164Z,80.76
2023-08-02T02:23:32.646Z,81.58
2023-08-02T02:25:34.357Z,81.85
2023-08-02T02:27:35.784Z,82.43
2023-08-02T02:29:37.368Z,82.09
2023-08-02T02:31:38.913Z,82.05
2023-08-02T02:33:40.500Z,81.10
2023-08-02T02:35:41.959Z,81.55
2023-08-02T02:37:43.537Z,81.35
2023-08-02T02:39:45.005Z,81.97
2023-08-02T02:41:46.421Z,80.77
2023-08-02T02:43:48.030Z,81.80
2023-08-02T02:45:49.450Z,81.97
2023-08-02T02:47:50.984Z,81.28
2023-08-02T02:49:52.464Z,80.54
2023-08-02T02:51:53.868Z,81.23
2023-08-02T02:53:55.295Z,81.25
2023-08-02T02:55:57.400Z,80.55
2023-08-02T02:57:58.940Z,81.04
2023-08-02T03:00:00.412Z,80.36
2023-08-02T03:02:01.904Z,80.92
2023-08-02T03:04:03.395Z,80.26
2023-08-02T03:06:04.928Z,80.19
2023-08-02T03:08:07.195Z,81.02
2023-08-02T03:10:09.036Z,80.29
2023-08-02T03:12:10.480Z,80.84
2023-08-02T03:14:11.891Z,80.90
2023-08-02T03:16:13.345Z,79.77
2023-08-02T03:18:14.953Z,81.36
2023-08-02T03:20:16.626Z,80.87
2023-08-02T03:22:18.085Z,81.20
2023-08-02T03:24:19.527Z,80.63
2023-08-02T03:26:20.989Z,81.02
2023-08-02T03:28:22.441Z,81.02
2023-08-02T03:30:23.868Z,81.13
2023-08-02T03:32:25.382Z,80.53
2023-08-02T03:34:26.843Z,80.17
2023-08-02T03:36:28.331Z,81.36
2023-08-02T03:38:31.339Z,80.80
2023-08-02T03:40:33.002Z,81.61
2023-08-02T03:42:34.440Z,80.17
2023-08-02T03:44:35.920Z,79.97
2023-08-02T03:46:37.471Z,80.39
2023-08-02T03:48:39.032Z,80.30
2023-08-02T03:50:40.489Z,80.72
2023-08-02T03:52:42.011Z,79.47
2023-08-02T03:54:43.495Z,80.45
2023-08-02T03:56:45.226Z,79.64
2023-08-02T03:58:47.060Z,80.77
2023-08-02T04:00:48.505Z,80.41
2023-08-02T04:02:49.957Z,80.14
2023-08-02T04:04:51.424Z,80.59
2023-08-02T04:06:52.896Z,79.42
2023-08-02T04:08:54.354Z,80.82
2023-08-02T04:10:55.748Z,79.68
2023-08-02T04:12:57.190Z,79.34
2023-08-02T04:14:58.631Z,79.44
2023-08-02T04:17:00.111Z,79.50
2023-08-02T04:19:01.558Z,79.11
2023-08-02T04:21:03.096Z,78.71
2023-08-02T04:23:04.529Z,79.80
2023-08-02T04:25:06.321Z,78.78
2023-08-02T04:27:07.750Z,78.55
2023-08-02T04:29:09.690Z,78.28
2023-08-02T04:31:11.228Z,78.29
2023-08-02T04:33:12.811Z,77.98
2023-08-02T04:35:14.376Z,77.50
2023-08-02T04:37:15.822Z,77.78
2023-08-02T04:39:17.306Z,78.05
2023-08-02T04:41:18.714Z,77.05
2023-08-02T04:43:20.182Z,76.88
2023-08-02T04:45:21.606Z,76.67
2023-08-02T04:47:23.122Z,76.49
2023-08-02T04:49:24.677Z,78.17
2023-08-02T04:51:26.144Z,77.44
2023-08-02T04:53:27.932Z,77.42
2023-08-02T04:55:29.423Z,77.16
2023-08-02T04:57:30.881Z,76.79
2023-08-02T04:59:32.367Z,76.82
2023-08-02T05:01:34.094Z,76.36
2023-08-02T05:03:36.135Z,76.05
2023-08-02T05:05:37.658Z,76.37
2023-08-02T05:07:41.310Z,75.46
2023-08-02T05:09:43.805Z,76.63
2023-08-02T05:11:45.402Z,77.01
2023-08-02T05:13:46.972Z,77.24
2023-08-02T05:15:48.424Z,75.94
2023-08-02T05:17:50.083Z,75.70
2023-08-02T05:19:51.620Z,75.57
2023-08-02T05:21:53.028Z,75.88
2023-08-02T05:23:54.927Z,75.33
2023-08-02T05:25:56.851Z,75.94
2023-08-02T05:27:58.453Z,77.00
2023-08-02T05:30:00.458Z,76.26
2023-08-02T05:32:01.963Z,76.17
2023-08-02T05:34:03.535Z,75.85
2023-08-02T05:36:05.435Z,75.46
2023-08-02T05:38:06.892Z,75.42
2023-08-02T05:40:09.004Z,75.04
2023-08-02T05:42:10.462Z,75.75
2023-08-02T05:44:11.889Z,75.96
2023-08-02T05:46:13.507Z,75.02
2023-08-02T05:48:14.959Z,75.35
2023-08-02T05:50:16.378Z,75.73
2023-08-02T05:52:17.800Z,76.46
2023-08-02T05:54:21.723Z,75.42
2023-08-02T05:56:23.207Z,74.94
2023-08-02T05:58:25.585Z,75.49
2023-08-02T06:00:27.105Z,74.44
2023-08-02T06:02:28.508Z,75.48
2023-08-02T06:04:29.998Z,75.46
2023-08-02T06:06:31.487Z,75.77
2023-08-02T06:08:32.947Z,75.58
2023-08-02T06:10:34.513Z,76.45
2023-08-02T06:12:36.006Z,75.44
2023-08-02T06:14:37.475Z,75.46
2023-08-02T06:16:38.903Z,75.75
2023-08-02T06:18:40.334Z,75.89
2023-08-02T06:20:41.786Z,75.87
2023-08-02T06:22:43.278Z,75.98
2023-08-02T06:24:45.112Z,75.67
2023-08-02T06:26:47.182Z,75.19
2023-08-02T06:28:49.041Z,75.56
2023-08-02T06:30:50.470Z,76.03
2023-08-02T06:32:52.021Z,76.26
2023-08-02T06:34:53.488Z,76.92
2023-08-02T06:36:54.952Z,77.81
2023-08-02T06:38:56.720Z,77.22
2023-08-02T06:40:58.135Z,78.12
2023-08-02T06:42:59.559Z,78.47
2023-08-02T06:45:01.204Z,78.03
2023-08-02T06:47:02.993Z,78.72
2023-08-02T06:49:04.483Z,77.46
2023-08-02T06:51:05.913Z,79.31
2023-08-02T06:53:07.447Z,79.37
2023-08-02T06:55:09.152Z,79.46
2023-08-02T06:57:10.664Z,78.67
2023-08-02T06:59:12.142Z,78.20
2023-08-02T07:01:18.475Z,78.14
2023-08-02T07:03:22.962Z,77.65
2023-08-02T07:05:25.596Z,79.46
2023-08-02T07:07:27.010Z,78.49
2023-08-02T07:09:30.984Z,80.25
2023-08-02T07:11:46.286Z,79.87
2023-08-02T07:13:48.135Z,79.77
2023-08-02T07:15:49.537Z,79.43
2023-08-02T07:17:53.937Z,80.68
2023-08-02T07:19:56.015Z,79.13
2023-08-02T07:21:57.456Z,77.96
2023-08-02T07:23:58.978Z,78.80
2023-08-02T07:26:00.437Z,79.28
2023-08-02T07:28:01.860Z,78.73
2023-08-02T07:30:04.184Z,78.06
2023-08-02T07:32:06.038Z,78.06
2023-08-02T07:34:07.475Z,79.19
2023-08-02T07:36:17.667Z,78.95
2023-08-02T07:38:19.140Z,78.19
2023-08-02T07:40:20.705Z,77.76
2023-08-02T07:42:24.629Z,79.84
2023-08-02T07:44:26.199Z,78.18
2023-08-02T07:48:53.363Z,77.55
2023-08-02T07:50:54.993Z,77.89
2023-08-02T07:52:56.614Z,78.34
2023-08-02T07:54:58.473Z,77.88
2023-08-02T07:56:59.893Z,77.31
2023-08-02T07:59:04.085Z,79.63
2023-08-02T08:01:07.906Z,76.88
2023-08-02T08:03:09.463Z,76.83
2023-08-02T08:05:11.275Z,76.73
2023-08-02T08:07:13.455Z,76.87
2023-08-02T08:09:14.999Z,78.26
2023-08-02T08:11:17.044Z,77.66
2023-08-02T08:13:18.806Z,76.66
2023-08-02T08:15:20.362Z,77.01
2023-08-02T08:17:21.805Z,75.70
2023-08-02T08:19:23.408Z,74.65
2023-08-02T08:21:24.829Z,75.27
2023-08-02T08:23:27.015Z,75.14
2023-08-02T08:25:28.443Z,75.45
2023-08-02T08:27:29.849Z,74.83
2023-08-02T08:29:31.298Z,75.61
2023-08-02T08:31:33.804Z,76.98
2023-08-02T08:33:35.411Z,75.79
2023-08-02T08:35:36.975Z,76.60
2023-08-02T08:37:38.482Z,76.89
2023-08-02T08:39:39.916Z,75.32
2023-08-02T08:41:41.843Z,74.22
2023-08-02T08:43:43.632Z,76.44
2023-08-02T08:45:46.640Z,74.66
2023-08-02T08:47:49.032Z,74.98
2023-08-02T08:49:50.906Z,76.71
2023-08-02T08:51:54.586Z,74.54
2023-08-02T08:53:57.580Z,74.63
2023-08-02T08:56:00.418Z,75.85
2023-08-02T08:58:10.195Z,75.76
2023-08-02T09:00:14.845Z,74.75
2023-08-02T09:02:16.800Z,75.42
2023-08-02T09:04:19.037Z,75.03
2023-08-02T09:06:21.538Z,75.34
2023-08-02T09:08:23.018Z,75.38
2023-08-02T09:10:24.448Z,75.39
2023-08-02T09:12:26.234Z,76.26
2023-08-02T09:14:27.683Z,74.42
2023-08-02T09:16:29.187Z,74.25
2023-08-02T09:18:39.868Z,74.71
2023-08-02T09:20:53.225Z,74.68
2023-08-02T09:22:54.691Z,75.06
2023-08-02T09:24:56.105Z,75.33
2023-08-02T09:26:57.536Z,75.93
2023-08-02T09:29:04.377Z,74.29
2023-08-02T09:31:16.742Z,73.01
2023-08-02T09:33:18.286Z,72.94
2023-08-02T09:35:19.748Z,73.61
2023-08-02T09:37:36.067Z,73.29
2023-08-02T09:39:37.891Z,73.17
2023-08-02T09:41:56.251Z,73.25
2023-08-02T09:43:59.810Z,72.62
2023-08-02T09:46:01.312Z,72.82
2023-08-02T09:48:03.843Z,72.50
2023-08-02T09:50:17.522Z,72.24
2023-08-02T09:52:28.177Z,72.46
2023-08-02T09:54:31.862Z,72.42
2023-08-02T09:56:36.160Z,71.30
2023-08-02T09:58:40.525Z,70.74
2023-08-02T10:00:42.030Z,69.19
2023-08-02T10:02:44.058Z,69.03
2023-08-02T10:04:47.903Z,68.21
2023-08-02T10:06:54.080Z,67.87
2023-08-02T10:09:05.290Z,67.26
2023-08-02T10:11:07.746Z,69.89
2023-08-02T10:13:15.236Z,68.51
2023-08-02T10:15:17.832Z,67.33
2023-08-02T10:17:20.953Z,67.86
2023-08-02T10:19:24.087Z,68.35
2023-08-02T10:21:25.824Z,69.42
2023-08-02T10:23:28.024Z,67.80
2023-08-02T10:25:33.609Z,68.28
2023-08-02T10:27:37.202Z,68.18
2023-08-02T10:29:40.061Z,68.96
2023-08-02T10:31:42.233Z,68.83
2023-08-02T10:33:43.787Z,69.93
2023-08-02T10:36:08.837Z,70.31
2023-08-02T10:38:10.259Z,70.50
2023-08-02T10:40:11.716Z,69.21
2023-08-02T10:42:20.793Z,69.42
2023-08-02T10:44:22.292Z,69.56
2023-08-02T10:46:26.566Z,67.38
2023-08-02T10:48:28.464Z,68.71
2023-08-02T10:50:47.014Z,68.70
2023-08-02T10:52:48.464Z,69.70
2023-08-02T10:55:09.757Z,70.51
2023-08-02T10:57:11.542Z,69.32
2023-08-02T10:59:12.994Z,69.68
2023-08-02T11:01:14.665Z,70.41
2023-08-02T11:03:29.487Z,72.21
2023-08-02T11:05:37.791Z,72.83
2023-08-02T11:07:39.241Z,73.38
2023-08-02T11:09:41.780Z,74.40
2023-08-02T11:11:44.693Z,73.39
2023-08-02T11:13:46.717Z,73.38
2023-08-02T11:16:00.491Z,74.55
2023-08-02T11:18:03.028Z,72.75
2023-08-02T11:20:08.482Z,72.44
2023-08-02T11:22:10.015Z,71.72
2023-08-02T11:24:11.418Z,73.33
2023-08-02T11:26:15.938Z,71.75
2023-08-02T11:28:18.426Z,71.85
2023-08-02T11:30:24.445Z,71.69
2023-08-02T11:32:29.226Z,71.33
2023-08-02T11:34:30.844Z,69.95
2023-08-02T11:36:33.745Z,70.87
2023-08-02T11:38:37.204Z,71.07
2023-08-02T11:40:38.767Z,71.01
2023-08-02T11:42:51.757Z,68.82
2023-08-02T11:44:59.600Z,69.54
2023-08-02T11:47:10.485Z,69.79
2023-08-02T11:49:11.975Z,68.55
2023-08-02T11:51:15.528Z,68.63
2023-08-02T11:53:17.054Z,68.31
2023-08-02T11:55:21.211Z,68.93
2023-08-02T11:57:24.921Z,67.87
2023-08-02T11:59:26.463Z,67.87
2023-08-02T12:01:28.364Z,66.06
2023-08-02T12:03:29.817Z,66.44
2023-08-02T12:05:31.380Z,65.21
2023-08-02T12:07:34.785Z,66.76
2023-08-02T12:09:41.944Z,66.24
2023-08-02T12:11:44.626Z,64.99
2023-08-02T12:13:46.697Z,64.83
2023-08-02T12:16:07.355Z,66.63
2023-08-02T12:18:09.308Z,66.82
2023-08-02T12:20:29.587Z,66.80
2023-08-02T12:22:31.021Z,66.99
2023-08-02T12:24:32.595Z,66.49
2023-08-02T12:26:36.693Z,65.70
2023-08-02T12:28:48.495Z,65.96
2023-08-02T12:31:06.580Z,67.16
2023-08-02T12:33:08.211Z,64.63
2023-08-02T12:35:12.957Z,63.45
2023-08-02T12:37:17.103Z,63.71
2023-08-02T12:39:18.634Z,62.06
2023-08-02T12:41:20.055Z,62.39
2023-08-02T12:43:21.470Z,63.46
2023-08-02T12:45:27.307Z,62.58
2023-08-02T12:47:28.815Z,64.95
2023-08-02T12:49:30.279Z,63.68
2023-08-02T12:51:31.719Z,65.24
2023-08-02T12:53:33.357Z,65.06
2023-08-02T12:55:34.839Z,66.73
2023-08-02T12:57:36.385Z,67.23
2023-08-02T12:59:37.790Z,64.74
2023-08-02T13:01:39.333Z,65.95
2023-08-02T13:03:40.990Z,65.56
2023-08-02T13:05:42.508Z,68.53
2023-08-02T13:07:48.093Z,67.85
2023-08-02T13:09:51.336Z,68.49
2023-08-02T13:12:00.931Z,68.85
2023-08-02T13:14:05.896Z,69.00
2023-08-02T13:16:07.446Z,69.15
2023-08-02T13:18:09.084Z,70.25
2023-08-02T13:20:11.004Z,71.40
2023-08-02T13:22:12.445Z,71.20
2023-08-02T13:24:13.881Z,71.19
2023-08-02T13:26:15.527Z,72.32
2023-08-02T13:28:17.405Z,73.95
2023-08-02T13:30:18.889Z,73.61
2023-08-02T13:32:20.446Z,74.99
2023-08-02T13:34:21.884Z,75.13
2023-08-02T13:36:23.309Z,76.67
2023-08-02T13:38:24.925Z,78.44
2023-08-02T13:40:26.446Z,77.56
2023-08-02T13:42:32.137Z,77.83
2023-08-02T13:44:33.682Z,77.03
2023-08-02T13:46:35.284Z,74.25
2023-08-02T13:48:36.784Z,75.30
2023-08-02T13:50:39.286Z,75.83
2023-08-02T13:52:41.053Z,76.84
2023-08-02T13:54:42.547Z,74.80
2023-08-02T13:56:44.169Z,75.39
2023-08-02T13:58:45.993Z,75.52
2023-08-02T14:00:47.660Z,76.70
2023-08-02T14:02:49.371Z,74.98
2023-08-02T14:04:51.222Z,75.20
2023-08-02T14:06:53.091Z,73.67
2023-08-02T14:08:54.594Z,73.61
2023-08-02T14:10:56.634Z,74.27
2023-08-02T14:12:59.537Z,75.59
2023-08-02T14:15:01.385Z,73.84
2023-08-02T14:17:03.094Z,73.99
2023-08-02T14:19:05.043Z,73.86
2023-08-02T14:21:06.524Z,72.34
2023-08-02T14:23:08.044Z,71.55
2023-08-02T14:25:10.581Z,72.16
2023-08-02T14:27:12.467Z,70.86
2023-08-02T14:29:13.936Z,69.65
2023-08-02T14:31:15.446Z,71.11
2023-08-02T14:33:17.206Z,68.75
2023-08-02T14:35:19.202Z,68.69
2023-08-02T14:37:20.786Z,68.65
2023-08-02T14:39:22.268Z,67.11
2023-08-02T14:41:23.734Z,69.79
2023-08-02T14:43:25.500Z,68.93
2023-08-02T14:45:26.960Z,69.22
2023-08-02T14:47:28.759Z,68.14
2023-08-02T14:49:30.240Z,69.05
2023-08-02T14:51:32.642Z,70.15
2023-08-02T14:53:34.054Z,67.25
2023-08-02T14:55:35.806Z,67.82
2023-08-02T14:57:37.269Z,64.35
2023-08-02T14:59:38.758Z,56.06
2023-08-02T15:01:40.447Z,42.43
2023-08-02T15:03:41.927Z,38.34
2023-08-02T15:05:43.560Z,34.64
2023-08-02T15:07:45.090Z,37.02
2023-08-02T15:09:47.430Z,35.60
2023-08-02T15:11:48.997Z,47.60
2023-08-02T15:13:50.503Z,53.05
2023-08-02T15:15:51.960Z,55.16
2023-08-02T15:17:53.493Z,56.94
2023-08-02T15:19:56.210Z,58.25
2023-08-02T15:21:57.662Z,57.75
2023-08-02T15:23:59.227Z,47.37
2023-08-02T15:26:01.460Z,38.32
2023-08-02T15:28:03.277Z,34.26
2023-08-02T15:30:05.715Z,32.11
2023-08-02T15:32:07.967Z,30.46
2023-08-02T15:34:11.331Z,30.59
2023-08-02T15:36:15.129Z,28.70
2023-08-02T15:38:16.732Z,27.94
2023-08-02T15:40:19.462Z,27.60
2023-08-02T15:42:25.351Z,28.67
2023-08-02T15:44:26.978Z,27.05
2023-08-02T15:46:28.668Z,25.41
2023-08-02T15:48:30.162Z,25.79
2023-08-02T15:50:31.635Z,26.76
2023-08-02T15:52:34.234Z,28.73
2023-08-02T15:54:35.696Z,32.68
2023-08-02T15:56:37.475Z,25.38
2023-08-02T15:58:42.134Z,25.10
2023-08-02T16:00:44.166Z,26.58
2023-08-02T16:02:46.386Z,25.55
2023-08-02T16:04:48.108Z,24.71
2023-08-02T16:06:51.588Z,23.50
2023-08-02T16:08:53.408Z,22.69
2023-08-02T16:10:54.897Z,28.42
2023-08-02T16:12:56.389Z,29.14
2023-08-02T16:14:58.077Z,35.15
2023-08-02T16:17:00.161Z,38.83
2023-08-02T16:19:02.206Z,37.73
2023-08-02T16:21:03.770Z,40.77
2023-08-02T16:23:05.211Z,43.77
2023-08-02T16:25:07.956Z,45.41
2023-08-02T16:27:09.759Z,46.84
2023-08-02T16:29:11.224Z,49.21
2023-08-02T16:31:12.674Z,48.13
2023-08-02T16:33:14.157Z,50.33
2023-08-02T16:35:15.653Z,47.86
2023-08-02T16:37:17.084Z,45.95
2023-08-02T16:39:18.514Z,41.93
2023-08-02T16:41:19.972Z,41.14
2023-08-02T16:43:21.455Z,31.73
2023-08-02T16:45:22.910Z,28.02
2023-08-02T16:47:24.683Z,29.54
2023-08-02T16:49:27.246Z,27.11
2023-08-02T16:51:29.199Z,26.16
2023-08-02T16:53:30.730Z,29.35
2023-08-02T16:55:32.264Z,25.88
2023-08-02T16:57:35.195Z,25.57
2023-08-02T16:59:38.254Z,26.02
2023-08-02T17:01:39.733Z,25.42
2023-08-02T17:03:41.189Z,24.57
2023-08-02T17:05:42.726Z,23.89
2023-08-02T17:07:44.974Z,24.34
2023-08-02T17:09:47.217Z,23.52
2023-08-02T17:11:48.765Z,24.02
2023-08-02T17:13:50.284Z,24.69
2023-08-02T17:15:51.816Z,24.08
2023-08-02T17:17:53.406Z,24.72
2023-08-02T17:19:54.872Z,24.92
2023-08-02T17:21:56.841Z,25.08
2023-08-02T17:23:58.277Z,24.84
2023-08-02T17:25:59.706Z,25.73
2023-08-02T17:28:01.152Z,32.63
2023-08-02T17:30:03.018Z,35.49
2023-08-02T17:32:04.762Z,38.07
2023-08-02T17:34:07.381Z,42.20
2023-08-02T17:36:08.870Z,41.86
2023-08-02T17:38:10.788Z,43.32
2023-08-02T17:40:12.739Z,48.26
2023-08-02T17:42:14.451Z,47.00
2023-08-02T17:44:16.032Z,46.76
2023-08-02T17:46:25.093Z,47.46
2023-08-02T17:48:27.054Z,46.26
2023-08-02T17:50:28.698Z,50.61
2023-08-02T17:52:30.258Z,49.65
2023-08-02T17:54:32.189Z,49.36
2023-08-02T17:56:33.660Z,49.18
2023-08-02T17:58:36.363Z,50.43
2023-08-02T18:00:39.970Z,51.96
2023-08-02T18:02:41.515Z,51.69
2023-08-02T18:04:43.103Z,52.76
2023-08-02T18:06:44.632Z,52.80
2023-08-02T18:08:48.352Z,54.94
2023-08-02T18:10:49.908Z,54.91
2023-08-02T18:12:51.533Z,55.34
2023-08-02T18:14:53.023Z,56.63
2023-08-02T18:16:54.561Z,57.75
2023-08-02T18:18:56.180Z,58.28
2023-08-02T18:20:57.686Z,58.49
2023-08-02T18:23:02.197Z,57.29
2023-08-02T18:25:03.675Z,58.42
2023-08-02T18:27:05.644Z,59.48
2023-08-02T18:29:07.129Z,58.91
2023-08-02T18:31:09.014Z,59.13
2023-08-02T18:33:11.899Z,59.68
2023-08-02T18:35:13.472Z,60.31
2023-08-02T18:37:15.049Z,60.00
2023-08-02T18:39:16.754Z,60.72
2023-08-02T18:41:25.019Z,61.85
2023-08-02T18:43:26.538Z,62.81
2023-08-02T18:45:28.702Z,63.76
2023-08-02T18:47:30.217Z,65.66
2023-08-02T18:49:31.754Z,64.98
2023-08-02T18:51:33.231Z,65.03
2023-08-02T18:53:34.705Z,66.13
2023-08-02T18:55:37.297Z,66.33
2023-08-02T18:57:39.094Z,66.65
2023-08-02T18:59:40.627Z,67.50
2023-08-02T19:01:45.185Z,67.66
2023-08-02T19:03:47.252Z,68.35
2023-08-02T19:05:48.849Z,68.74
2023-08-02T19:07:50.356Z,68.69
2023-08-02T19:09:51.809Z,69.61
2023-08-02T19:11:53.636Z,68.77
2023-08-02T19:13:55.866Z,69.51
2023-08-02T19:15:59.499Z,70.68
2023-08-02T19:18:05.925Z,72.06
2023-08-02T19:20:15.082Z,72.15
2023-08-02T19:22:17.957Z,71.91
2023-08-02T19:24:19.486Z,72.39
2023-08-02T19:26:25.145Z,71.64
2023-08-02T19:28:26.948Z,72.42
2023-08-02T19:30:29.226Z,72.47
2023-08-02T19:32:30.825Z,72.25
2023-08-02T19:34:35.549Z,72.98
2023-08-02T19:36:37.016Z,73.09
2023-08-02T19:38:38.486Z,73.79
2023-08-02T19:40:39.930Z,74.10
2023-08-02T19:42:44.971Z,74.81
2023-08-02T19:44:50.965Z,74.92
2023-08-02T19:46:53.167Z,74.93
2023-08-02T19:48:54.940Z,75.19
2023-08-02T19:50:56.522Z,75.55
2023-08-02T19:52:58.010Z,74.26
2023-08-02T19:55:01.787Z,75.00
2023-08-02T19:57:03.739Z,75.07
2023-08-02T19:59:05.364Z,74.89
2023-08-02T20:01:07.045Z,75.17
2023-08-02T20:03:10.406Z,75.89
2023-08-02T20:05:17.328Z,76.71
2023-08-02T20:07:21.532Z,75.88
2023-08-02T20:09:23.100Z,76.36
2023-08-02T20:11:24.627Z,75.97
2023-08-02T20:13:46.866Z,76.09
2023-08-02T20:15:49.209Z,77.03
2023-08-02T20:17:55.645Z,76.51
2023-08-02T20:19:57.123Z,76.14
2023-08-02T20:21:58.565Z,77.61
2023-08-02T20:24:03.302Z,75.66
2023-08-02T20:26:08.379Z,75.66
2023-08-02T20:28:13.179Z,76.61
2023-08-02T20:30:18.315Z,75.80
2023-08-02T20:32:20.644Z,76.24
2023-08-02T20:34:22.185Z,75.74
2023-08-02T20:36:24.653Z,76.52
2023-08-02T20:38:27.966Z,77.04
2023-08-02T20:40:36.707Z,76.61
2023-08-02T20:42:38.380Z,75.67
2023-08-02T20:44:43.123Z,75.44
2023-08-02T20:46:44.604Z,77.37
2023-08-02T20:48:48.235Z,76.54
2023-08-02T20:50:50.278Z,76.22
2023-08-02T20:52:51.905Z,75.76
2023-08-02T20:54:53.353Z,76.61
2023-08-02T20:56:54.806Z,75.64
2023-08-02T20:58:56.325Z,76.35
2023-08-02T21:00:57.819Z,76.41
2023-08-02T21:02:59.362Z,76.55
2023-08-02T21:05:01.579Z,77.62
2023-08-02T21:07:11.352Z,77.73
2023-08-02T21:09:13.198Z,78.25
2023-08-02T21:11:14.802Z,78.44
2023-08-02T21:13:16.258Z,78.68
2023-08-02T21:15:17.798Z,78.65
2023-08-02T21:17:20.706Z,78.28
2023-08-02T21:19:22.228Z,78.01
2023-08-02T21:21:23.751Z,77.79
2023-08-02T21:23:25.375Z,78.69
2023-08-02T21:25:26.830Z,79.14
2023-08-02T21:27:28.608Z,79.27
2023-08-02T21:29:30.119Z,78.98
2023-08-02T21:31:42.644Z,78.44
2023-08-02T21:33:57.322Z,79.11
2023-08-02T21:35:59.500Z,80.16
2023-08-02T21:38:00.968Z,78.90
2023-08-02T21:40:02.421Z,78.71
2023-08-02T21:42:18.655Z,78.86
2023-08-02T21:44:20.162Z,77.54
2023-08-02T21:46:22.217Z,77.18
2023-08-02T21:48:24.062Z,78.37
2023-08-02T21:50:30.098Z,75.96
2023-08-02T21:52:31.567Z,76.85
2023-08-02T21:54:39.571Z,78.19
2023-08-02T21:56:41.481Z,77.45
2023-08-02T21:58:45.521Z,78.23
2023-08-02T22:00:48.545Z,79.01
2023-08-02T22:02:50.198Z,78.03
2023-08-02T22:04:51.802Z,77.87
2023-08-02T22:06:53.265Z,77.64
2023-08-02T22:08:55.814Z,79.40
2023-08-02T22:10:57.270Z,79.84
2023-08-02T22:12:58.736Z,79.03
2023-08-02T22:15:06.003Z,79.19
2023-08-02T22:17:08.012Z,79.65
2023-08-02T22:19:09.438Z,78.77
2023-08-02T22:21:12.955Z,79.35
2023-08-02T22:23:14.522Z,79.37
2023-08-02T22:25:16.118Z,80.29
2023-08-02T22:27:17.652Z,78.78
2023-08-02T22:29:19.105Z,80.80
2023-08-02T22:31:21.643Z,80.44
2023-08-02T22:33:23.271Z,80.49
2023-08-02T22:35:24.779Z,80.40
2023-08-02T22:37:26.222Z,79.56
2023-08-02T22:39:27.805Z,79.31
2023-08-02T22:41:29.227Z,79.39
2023-08-02T22:43:30.690Z,79.09
2023-08-02T22:45:32.148Z,79.78
2023-08-02T22:47:33.606Z,78.44
2023-08-02T22:50:43.505Z,79.32
2023-08-02T22:51:58.189Z,79.96
2023-08-02T22:53:59.665Z,79.11
2023-08-02T22:56:03.191Z,79.48
2023-08-02T22:58:05.286Z,79.89
2023-08-02T23:00:10.632Z,80.06
2023-08-02T23:02:12.951Z,79.18
2023-08-02T23:04:17.338Z,79.23
2023-08-02T23:06:22.886Z,80.86
2023-08-02T23:08:24.558Z,79.28
2023-08-02T23:10:28.988Z,78.91
2023-08-02T23:12:39.174Z,79.44
2023-08-02T23:14:40.631Z,79.03
2023-08-02T23:16:42.159Z,77.65
2023-08-02T23:18:43.657Z,79.80
2023-08-02T23:20:47.163Z,80.44
2023-08-02T23:22:48.609Z,79.51
2023-08-02T23:24:50.124Z,82.17
2023-08-02T23:26:51.617Z,79.37
2023-08-02T23:28:54.826Z,80.19
2023-08-02T23:30:57.007Z,80.97
2023-08-02T23:32:58.606Z,79.89
2023-08-02T23:35:00.152Z,80.76
2023-08-02T23:37:01.574Z,80.38
2023-08-02T23:39:03.357Z,80.63
2023-08-02T23:41:04.870Z,81.70
2023-08-02T23:43:06.378Z,80.31
2023-08-02T23:45:08.089Z,80.37
2023-08-02T23:47:09.536Z,79.41
2023-08-02T23:49:10.994Z,79.66
2023-08-02T23:51:14.095Z,79.45
2023-08-02T23:53:15.604Z,79.05
2023-08-02T23:55:17.164Z,79.52
2023-08-02T23:57:18.609Z,80.16
2023-08-02T23:59:20.050Z,79.38
